createdAt,value
2017-01-06T00:00:06.614Z,18.99
2017-01-06T00:01:15.726Z,18.9
2017-01-06T00:02:24.847Z,18.95
2017-01-06T00:03:33.539Z,18.99
2017-01-06T00:04:42.632Z,18.98
2017-01-06T00:05:51.321Z,18.9
2017-01-06T00:07:00.415Z,18.88
2017-01-06T00:08:09.474Z,18.88
2017-01-06T00:09:18.559Z,18.91
2017-01-06T00:10:28.062Z,18.81
2017-01-06T00:11:37.545Z,18.84
2017-01-06T00:12:47.003Z,18.82
2017-01-06T00:13:55.699Z,18.84
2017-01-06T00:15:05.206Z,18.82
2017-01-06T00:16:14.282Z,18.78
2017-01-06T00:17:23.038Z,18.82
2017-01-06T00:18:32.122Z,18.87
2017-01-06T00:19:41.211Z,18.76
2017-01-06T00:20:49.966Z,18.75
2017-01-06T00:21:59.455Z,18.78
2017-01-06T00:23:08.644Z,18.75
2017-01-06T00:24:17.340Z,18.78
2017-01-06T00:25:26.448Z,18.87
2017-01-06T00:26:35.558Z,18.81
2017-01-06T00:27:45.422Z,18.82
2017-01-06T00:28:54.531Z,18.8
2017-01-06T00:30:03.265Z,18.85
2017-01-06T00:31:11.984Z,18.84
2017-01-06T00:32:21.043Z,18.94
2017-01-06T00:33:30.512Z,18.91
2017-01-06T00:34:39.606Z,18.88
2017-01-06T00:35:48.298Z,18.87
2017-01-06T00:36:57.028Z,18.91
2017-01-06T00:38:05.723Z,18.9
2017-01-06T00:39:14.474Z,18.99
2017-01-06T00:40:23.974Z,18.95
2017-01-06T00:41:33.455Z,18.92
2017-01-06T00:42:42.184Z,19.02
2017-01-06T00:43:51.258Z,18.99
2017-01-06T00:45:00.335Z,19.02
2017-01-06T00:46:10.222Z,18.98
2017-01-06T00:47:19.690Z,18.99
2017-01-06T00:48:29.224Z,19.08
2017-01-06T00:49:37.929Z,19.1
2017-01-06T00:50:47.032Z,19.13
2017-01-06T00:51:56.512Z,19.07
2017-01-06T00:53:05.225Z,19.08
2017-01-06T00:54:14.306Z,19.11
2017-01-06T00:55:23.058Z,19.13
2017-01-06T00:56:32.196Z,19.16
2017-01-06T00:57:40.933Z,19.13
2017-01-06T00:58:50.056Z,19.13
2017-01-06T00:59:58.741Z,19.14
2017-01-06T01:01:07.441Z,19.11
2017-01-06T01:02:16.935Z,19.22
2017-01-06T01:03:26.033Z,19.21
2017-01-06T01:04:35.093Z,19.14
2017-01-06T01:05:44.180Z,19.11
2017-01-06T01:06:53.279Z,19.19
2017-01-06T01:08:02.769Z,19.19
2017-01-06T01:09:11.493Z,19.16
2017-01-06T01:10:20.214Z,19.13
2017-01-06T01:11:29.735Z,19.13
2017-01-06T01:12:38.423Z,19.14
2017-01-06T01:13:47.533Z,19.1
2017-01-06T01:14:56.223Z,19.08
2017-01-06T01:16:06.122Z,19.07
2017-01-06T01:17:15.181Z,19.1
2017-01-06T01:18:23.910Z,19.06
2017-01-06T01:19:33.398Z,19.07
2017-01-06T01:20:42.497Z,19.06
2017-01-06T01:21:52.001Z,19.04
2017-01-06T01:23:01.462Z,19
2017-01-06T01:24:10.562Z,19.07
2017-01-06T01:25:19.287Z,19.08
2017-01-06T01:26:28.760Z,19.06
2017-01-06T01:27:38.308Z,19.04
2017-01-06T01:28:48.184Z,18.94
2017-01-06T01:29:57.664Z,19
2017-01-06T01:31:07.167Z,19
2017-01-06T01:32:17.116Z,18.92
2017-01-06T01:33:25.834Z,18.99
2017-01-06T01:34:34.963Z,19
2017-01-06T01:35:44.065Z,18.87
2017-01-06T01:36:53.547Z,18.99
2017-01-06T01:38:03.064Z,18.94
2017-01-06T01:39:12.180Z,18.95
2017-01-06T01:40:20.918Z,18.88
2017-01-06T01:41:30.029Z,18.91
2017-01-06T01:42:39.533Z,18.82
2017-01-06T01:43:48.686Z,18.94
2017-01-06T01:44:57.861Z,18.94
2017-01-06T01:46:07.016Z,18.92
2017-01-06T01:47:16.486Z,18.91
2017-01-06T01:48:25.666Z,18.82
2017-01-06T01:49:34.374Z,18.87
2017-01-06T01:50:43.476Z,18.82
2017-01-06T01:51:52.591Z,18.84
2017-01-06T01:53:01.735Z,18.87
2017-01-06T01:54:10.897Z,18.8
2017-01-06T01:55:19.610Z,18.84
2017-01-06T01:56:29.094Z,18.8
2017-01-06T01:57:38.190Z,18.78
2017-01-06T01:58:47.292Z,18.78
2017-01-06T01:59:56.383Z,18.75
2017-01-06T02:01:05.081Z,18.75
2017-01-06T02:02:14.549Z,18.78
2017-01-06T02:03:24.038Z,18.78
2017-01-06T02:04:33.125Z,18.76
2017-01-06T02:05:41.817Z,18.78
2017-01-06T02:06:50.505Z,18.76
2017-01-06T02:07:59.667Z,18.82
2017-01-06T02:09:08.817Z,18.8
2017-01-06T02:10:18.344Z,18.78
2017-01-06T02:11:28.238Z,18.8
2017-01-06T02:12:37.328Z,18.8
2017-01-06T02:13:46.416Z,18.82
2017-01-06T02:14:55.494Z,18.82
2017-01-06T02:16:04.261Z,18.8
2017-01-06T02:17:13.748Z,18.82
2017-01-06T02:18:22.887Z,18.9
2017-01-06T02:19:31.977Z,18.81
2017-01-06T02:20:41.466Z,18.81
2017-01-06T02:21:50.951Z,18.85
2017-01-06T02:23:00.027Z,18.85
2017-01-06T02:24:09.956Z,18.84
2017-01-06T02:25:18.673Z,18.75
2017-01-06T02:26:27.759Z,18.9
2017-01-06T02:27:36.455Z,18.84
2017-01-06T02:28:45.148Z,18.81
2017-01-06T02:29:54.204Z,18.87
2017-01-06T02:31:03.270Z,18.87
2017-01-06T02:32:11.983Z,18.76
2017-01-06T02:33:21.462Z,18.84
2017-01-06T02:34:30.963Z,18.87
2017-01-06T02:35:40.041Z,18.81
2017-01-06T02:36:49.180Z,18.85
2017-01-06T02:37:57.888Z,18.82
2017-01-06T02:39:06.580Z,18.8
2017-01-06T02:40:15.671Z,18.81
2017-01-06T02:41:24.390Z,18.81
2017-01-06T02:42:33.908Z,18.78
2017-01-06T02:43:43.042Z,18.76
2017-01-06T02:44:51.768Z,18.75
2017-01-06T02:46:00.501Z,18.82
2017-01-06T02:47:09.194Z,18.78
2017-01-06T02:48:18.283Z,18.7
2017-01-06T02:49:28.194Z,18.76
2017-01-06T02:50:37.757Z,18.7
2017-01-06T02:51:47.657Z,18.7
2017-01-06T02:52:56.377Z,18.69
2017-01-06T02:54:05.862Z,18.69
2017-01-06T02:55:14.966Z,18.73
2017-01-06T02:56:24.460Z,18.65
2017-01-06T02:57:33.587Z,18.72
2017-01-06T02:58:42.710Z,18.67
2017-01-06T02:59:51.428Z,18.63
2017-01-06T03:01:00.552Z,18.69
2017-01-06T03:02:09.692Z,18.63
2017-01-06T03:03:18.389Z,18.72
2017-01-06T03:04:27.090Z,18.65
2017-01-06T03:05:36.920Z,18.6
2017-01-06T03:06:45.616Z,18.58
2017-01-06T03:07:54.706Z,18.57
2017-01-06T03:09:03.411Z,18.63
2017-01-06T03:10:12.139Z,18.62
2017-01-06T03:11:20.897Z,18.58
2017-01-06T03:12:30.802Z,18.65
2017-01-06T03:13:39.939Z,18.69
2017-01-06T03:14:48.832Z,18.67
2017-01-06T03:15:57.960Z,18.73
2017-01-06T03:17:07.112Z,18.72
2017-01-06T03:18:15.826Z,18.69
2017-01-06T03:19:24.944Z,18.7
2017-01-06T03:20:34.514Z,18.69
2017-01-06T03:21:43.977Z,18.7
2017-01-06T03:22:53.049Z,18.82
2017-01-06T03:24:02.120Z,18.7
2017-01-06T03:25:11.601Z,18.81
2017-01-06T03:26:21.116Z,18.76
2017-01-06T03:27:29.805Z,18.84
2017-01-06T03:28:39.340Z,18.78
2017-01-06T03:29:48.067Z,18.81
2017-01-06T03:30:57.936Z,18.87
2017-01-06T03:32:07.399Z,18.88
2017-01-06T03:33:16.525Z,18.8
2017-01-06T03:34:25.241Z,18.76
2017-01-06T03:35:34.302Z,18.92
2017-01-06T03:36:42.996Z,18.92
2017-01-06T03:37:51.707Z,18.81
2017-01-06T03:39:00.815Z,18.92
2017-01-06T03:40:09.563Z,18.99
2017-01-06T03:41:18.686Z,18.95
2017-01-06T03:42:28.181Z,18.94
2017-01-06T03:43:37.308Z,18.98
2017-01-06T03:44:46.416Z,18.94
2017-01-06T03:45:55.565Z,18.95
2017-01-06T03:47:04.365Z,18.94
2017-01-06T03:48:13.095Z,18.98
2017-01-06T03:49:22.552Z,18.92
2017-01-06T03:50:31.305Z,18.94
2017-01-06T03:51:40.022Z,18.94
2017-01-06T03:52:48.720Z,18.94
2017-01-06T03:53:58.266Z,18.91
2017-01-06T03:55:07.349Z,18.88
2017-01-06T03:56:16.104Z,18.92
2017-01-06T03:57:25.304Z,18.95
2017-01-06T03:58:34.527Z,18.87
2017-01-06T03:59:44.057Z,18.91
2017-01-06T04:00:53.949Z,18.95
2017-01-06T04:02:03.824Z,18.91
2017-01-06T04:03:13.423Z,18.9
2017-01-06T04:04:22.554Z,18.94
2017-01-06T04:05:31.640Z,18.8
2017-01-06T04:06:40.780Z,18.9
2017-01-06T04:07:49.496Z,18.98
2017-01-06T04:08:58.589Z,18.84
2017-01-06T04:10:08.111Z,18.87
2017-01-06T04:11:16.816Z,18.85
2017-01-06T04:12:26.353Z,18.9
2017-01-06T04:13:35.843Z,18.84
2017-01-06T04:14:45.375Z,18.82
2017-01-06T04:15:54.504Z,18.82
2017-01-06T04:17:03.651Z,18.78
2017-01-06T04:18:13.138Z,18.81
2017-01-06T04:19:22.265Z,18.8
2017-01-06T04:20:31.399Z,18.76
2017-01-06T04:21:40.853Z,18.78
2017-01-06T04:22:49.999Z,18.8
2017-01-06T04:23:59.453Z,18.78
2017-01-06T04:25:08.219Z,18.73
2017-01-06T04:26:17.319Z,18.69
2017-01-06T04:27:26.834Z,18.73
2017-01-06T04:28:36.379Z,18.72
2017-01-06T04:29:45.476Z,18.73
2017-01-06T04:30:54.997Z,18.73
2017-01-06T04:32:04.479Z,18.66
2017-01-06T04:33:13.598Z,18.7
2017-01-06T04:34:23.586Z,18.65
2017-01-06T04:35:32.291Z,18.6
2017-01-06T04:36:41.817Z,18.58
2017-01-06T04:37:50.926Z,18.67
2017-01-06T04:39:00.015Z,18.65
2017-01-06T04:40:09.530Z,18.63
2017-01-06T04:41:18.226Z,18.57
2017-01-06T04:42:27.744Z,18.58
2017-01-06T04:43:36.872Z,18.58
2017-01-06T04:44:46.452Z,18.62
2017-01-06T04:45:55.975Z,18.51
2017-01-06T04:47:05.246Z,18.62
2017-01-06T04:48:14.743Z,18.51
2017-01-06T04:49:23.452Z,18.58
2017-01-06T04:50:32.563Z,18.52
2017-01-06T04:51:41.725Z,18.57
2017-01-06T04:52:50.424Z,18.57
2017-01-06T04:54:00.311Z,18.57
2017-01-06T04:55:09.419Z,18.54
2017-01-06T04:56:18.479Z,18.5
2017-01-06T04:57:27.257Z,18.55
2017-01-06T04:58:36.354Z,18.55
2017-01-06T04:59:45.883Z,18.45
2017-01-06T05:00:54.579Z,18.52
2017-01-06T05:02:03.644Z,18.44
2017-01-06T05:03:12.759Z,18.47
2017-01-06T05:04:22.639Z,18.5
2017-01-06T05:05:31.839Z,18.52
2017-01-06T05:06:40.991Z,18.62
2017-01-06T05:07:49.699Z,18.5
2017-01-06T05:08:58.377Z,18.5
2017-01-06T05:10:07.868Z,18.52
2017-01-06T05:11:16.576Z,18.54
2017-01-06T05:12:25.310Z,18.57
2017-01-06T05:13:34.395Z,18.6
2017-01-06T05:14:43.494Z,18.52
2017-01-06T05:15:52.575Z,18.58
2017-01-06T05:17:01.692Z,18.62
2017-01-06T05:18:10.813Z,18.58
2017-01-06T05:19:19.907Z,18.66
2017-01-06T05:20:28.595Z,18.63
2017-01-06T05:21:37.678Z,18.67
2017-01-06T05:22:46.406Z,18.67
2017-01-06T05:23:55.161Z,18.75
2017-01-06T05:25:04.219Z,18.73
2017-01-06T05:26:13.325Z,18.72
2017-01-06T05:27:22.401Z,18.75
2017-01-06T05:28:32.312Z,18.67
2017-01-06T05:29:41.394Z,18.75
2017-01-06T05:30:50.094Z,18.81
2017-01-06T05:31:58.776Z,18.76
2017-01-06T05:33:07.890Z,18.76
2017-01-06T05:34:16.596Z,18.82
2017-01-06T05:35:25.310Z,18.85
2017-01-06T05:36:34.383Z,18.87
2017-01-06T05:37:43.525Z,18.81
2017-01-06T05:38:52.611Z,18.9
2017-01-06T05:40:01.325Z,18.94
2017-01-06T05:41:10.823Z,18.98
2017-01-06T05:42:20.725Z,18.99
2017-01-06T05:43:30.220Z,19.04
2017-01-06T05:44:38.932Z,19.07
2017-01-06T05:45:48.440Z,19.13
2017-01-06T05:46:57.516Z,19.23
2017-01-06T05:48:06.254Z,19.21
2017-01-06T05:49:15.768Z,19.31
2017-01-06T05:50:24.881Z,19.32
2017-01-06T05:51:34.825Z,19.47
2017-01-06T05:52:43.969Z,19.46
2017-01-06T05:53:53.475Z,19.47
2017-01-06T05:55:02.618Z,19.47
2017-01-06T05:56:11.743Z,19.56
2017-01-06T05:57:21.204Z,19.63
2017-01-06T05:58:30.681Z,19.69
2017-01-06T05:59:39.832Z,19.69
2017-01-06T06:00:48.954Z,19.66
2017-01-06T06:01:58.073Z,19.69
2017-01-06T06:03:07.163Z,19.76
2017-01-06T06:04:16.262Z,19.86
2017-01-06T06:05:25.042Z,19.78
2017-01-06T06:06:34.544Z,19.88
2017-01-06T06:07:43.675Z,19.84
2017-01-06T06:08:52.832Z,19.98
2017-01-06T06:10:02.353Z,19.98
2017-01-06T06:11:11.106Z,19.96
2017-01-06T06:12:20.570Z,19.99
2017-01-06T06:13:30.478Z,20.03
2017-01-06T06:14:39.217Z,20.11
2017-01-06T06:15:48.303Z,20.11
2017-01-06T06:16:57.000Z,20.1
2017-01-06T06:18:06.526Z,20.18
2017-01-06T06:19:16.118Z,20.2
2017-01-06T06:20:24.820Z,20.16
2017-01-06T06:21:33.547Z,20.32
2017-01-06T06:22:42.657Z,20.32
2017-01-06T06:23:51.780Z,20.33
2017-01-06T06:25:01.323Z,20.38
2017-01-06T06:26:10.410Z,20.39
2017-01-06T06:27:19.485Z,20.48
2017-01-06T06:28:28.202Z,20.39
2017-01-06T06:29:37.682Z,20.42
2017-01-06T06:30:47.205Z,20.61
2017-01-06T06:31:57.068Z,20.64
2017-01-06T06:33:06.565Z,20.73
2017-01-06T06:34:15.312Z,20.64
2017-01-06T06:35:24.408Z,20.69
2017-01-06T06:36:33.137Z,20.69
2017-01-06T06:37:42.232Z,20.72
2017-01-06T06:38:51.736Z,20.79
2017-01-06T06:40:00.467Z,20.84
2017-01-06T06:41:10.336Z,20.87
2017-01-06T06:42:19.081Z,20.8
2017-01-06T06:43:27.792Z,20.82
2017-01-06T06:44:36.504Z,20.92
2017-01-06T06:45:45.592Z,20.94
2017-01-06T06:46:54.728Z,20.95
2017-01-06T06:48:03.442Z,21.06
2017-01-06T06:49:12.948Z,21.1
2017-01-06T06:50:22.098Z,21.04
2017-01-06T06:51:31.584Z,21.1
2017-01-06T06:52:40.314Z,21.12
2017-01-06T06:53:49.406Z,21.19
2017-01-06T06:54:58.890Z,21.09
2017-01-06T06:56:08.041Z,21.06
2017-01-06T06:57:16.795Z,21.03
2017-01-06T06:58:26.325Z,21.04
2017-01-06T06:59:35.404Z,21.07
2017-01-06T07:00:44.913Z,21.04
2017-01-06T07:01:53.606Z,21.03
2017-01-06T07:03:02.687Z,21.06
2017-01-06T07:04:11.797Z,21.04
2017-01-06T07:05:21.014Z,21.03
2017-01-06T07:06:30.149Z,21.12
2017-01-06T07:07:38.899Z,21.1
2017-01-06T07:08:48.022Z,20.99
2017-01-06T07:09:57.118Z,20.99
2017-01-06T07:11:06.185Z,20.95
2017-01-06T07:12:15.267Z,20.98
2017-01-06T07:13:36.721Z,20.82
2017-01-06T07:14:45.873Z,20.84
2017-01-06T07:15:55.424Z,20.84
2017-01-06T07:17:04.952Z,20.79
2017-01-06T07:18:14.080Z,20.8
2017-01-06T07:19:23.178Z,20.74
2017-01-06T07:20:31.969Z,20.69
2017-01-06T07:21:41.489Z,20.67
2017-01-06T07:22:50.238Z,20.7
2017-01-06T07:23:59.324Z,20.62
2017-01-06T07:25:08.792Z,20.59
2017-01-06T07:26:17.869Z,20.57
2017-01-06T07:27:27.357Z,20.51
2017-01-06T07:28:36.066Z,20.32
2017-01-06T07:29:45.926Z,20.17
2017-01-06T07:30:54.987Z,20.11
2017-01-06T07:32:04.843Z,20.03
2017-01-06T07:33:13.958Z,20.05
2017-01-06T07:34:22.645Z,19.95
2017-01-06T07:35:32.135Z,19.83
2017-01-06T07:36:42.001Z,19.78
2017-01-06T07:37:51.502Z,19.81
2017-01-06T07:39:00.231Z,19.78
2017-01-06T07:40:08.948Z,19.74
2017-01-06T07:41:17.650Z,19.73
2017-01-06T07:42:26.762Z,19.65
2017-01-06T07:43:35.488Z,19.68
2017-01-06T07:44:44.996Z,19.69
2017-01-06T07:45:54.393Z,19.63
2017-01-06T07:47:03.479Z,19.65
2017-01-06T07:48:12.180Z,19.62
2017-01-06T07:49:21.293Z,19.55
2017-01-06T07:50:30.414Z,19.51
2017-01-06T07:51:39.133Z,19.5
2017-01-06T07:52:48.628Z,19.46
2017-01-06T07:53:58.117Z,19.44
2017-01-06T07:55:07.218Z,19.46
2017-01-06T07:56:16.307Z,19.44
2017-01-06T07:57:25.797Z,19.44
2017-01-06T07:58:35.298Z,19.36
2017-01-06T07:59:44.062Z,19.37
2017-01-06T08:00:52.771Z,19.37
2017-01-06T08:02:03.008Z,19.32
2017-01-06T08:03:12.089Z,19.37
2017-01-06T08:04:21.575Z,19.32
2017-01-06T08:05:30.327Z,19.39
2017-01-06T08:06:39.717Z,19.47
2017-01-06T08:07:48.417Z,19.48
2017-01-06T08:08:57.945Z,19.47
2017-01-06T08:10:06.667Z,19.46
2017-01-06T08:11:15.816Z,19.4
2017-01-06T08:12:24.917Z,19.47
2017-01-06T08:13:34.052Z,19.44
2017-01-06T08:14:42.782Z,19.41
2017-01-06T08:15:51.946Z,19.41
2017-01-06T08:17:01.090Z,19.46
2017-01-06T08:18:10.185Z,19.56
2017-01-06T08:19:19.282Z,19.55
2017-01-06T08:20:28.388Z,19.58
2017-01-06T08:21:37.534Z,19.59
2017-01-06T08:22:47.058Z,19.58
2017-01-06T08:23:55.771Z,19.62
2017-01-06T08:25:04.929Z,19.68
2017-01-06T08:26:14.461Z,19.63
2017-01-06T08:27:23.594Z,19.65
2017-01-06T08:28:32.720Z,19.66
2017-01-06T08:29:42.267Z,19.74
2017-01-06T08:30:50.991Z,19.76
2017-01-06T08:32:00.082Z,19.76
2017-01-06T08:33:09.249Z,19.78
2017-01-06T08:34:17.982Z,19.84
2017-01-06T08:35:27.079Z,19.87
2017-01-06T08:36:36.554Z,19.86
2017-01-06T08:37:45.268Z,19.92
2017-01-06T08:38:54.774Z,20.01
2017-01-06T08:40:03.873Z,19.98
2017-01-06T08:41:12.994Z,20.05
2017-01-06T08:42:22.471Z,20.03
2017-01-06T08:43:31.553Z,20.03
2017-01-06T08:44:41.035Z,20.02
2017-01-06T08:45:49.743Z,20.06
2017-01-06T08:46:58.492Z,19.99
2017-01-06T08:48:07.239Z,20.05
2017-01-06T08:49:15.954Z,20.06
2017-01-06T08:50:25.067Z,20.14
2017-01-06T08:51:34.149Z,20.11
2017-01-06T08:52:42.858Z,20.08
2017-01-06T08:53:52.397Z,20.06
2017-01-06T08:55:02.279Z,20.11
2017-01-06T08:56:11.744Z,20.06
2017-01-06T08:57:20.456Z,20.13
2017-01-06T08:58:29.937Z,20.05
2017-01-06T08:59:39.475Z,20.13
2017-01-06T09:00:48.166Z,20.13
2017-01-06T09:01:56.937Z,20.02
2017-01-06T09:03:06.090Z,20.11
2017-01-06T09:04:14.812Z,20.1
2017-01-06T09:05:24.683Z,20.08
2017-01-06T09:06:33.797Z,20.01
2017-01-06T09:07:42.934Z,20.03
2017-01-06T09:08:52.058Z,19.96
2017-01-06T09:10:01.180Z,19.98
2017-01-06T09:11:10.300Z,19.96
2017-01-06T09:12:19.029Z,19.96
2017-01-06T09:13:28.538Z,19.94
2017-01-06T09:14:38.451Z,20.01
2017-01-06T09:15:47.988Z,19.95
2017-01-06T09:16:57.132Z,19.94
2017-01-06T09:18:06.218Z,19.99
2017-01-06T09:19:15.292Z,19.94
2017-01-06T09:20:24.407Z,19.94
2017-01-06T09:21:33.506Z,19.91
2017-01-06T09:22:42.981Z,19.84
2017-01-06T09:23:52.523Z,19.88
2017-01-06T09:25:01.256Z,19.84
2017-01-06T09:26:10.780Z,19.87
2017-01-06T09:27:19.880Z,19.83
2017-01-06T09:28:28.564Z,19.81
2017-01-06T09:29:38.429Z,19.84
2017-01-06T09:30:47.521Z,19.86
2017-01-06T09:31:57.046Z,19.8
2017-01-06T09:33:05.758Z,19.81
2017-01-06T09:34:15.300Z,19.78
2017-01-06T09:35:24.386Z,19.73
2017-01-06T09:36:33.491Z,19.81
2017-01-06T09:37:42.620Z,19.73
2017-01-06T09:38:51.748Z,19.74
2017-01-06T09:40:00.466Z,19.69
2017-01-06T09:41:09.222Z,19.71
2017-01-06T09:42:17.918Z,19.76
2017-01-06T09:43:26.622Z,19.66
2017-01-06T09:44:35.713Z,19.73
2017-01-06T09:45:44.408Z,19.66
2017-01-06T09:46:53.522Z,19.69
2017-01-06T09:48:02.605Z,19.63
2017-01-06T09:49:11.684Z,19.63
2017-01-06T09:50:20.781Z,19.73
2017-01-06T09:51:29.500Z,19.65
2017-01-06T09:52:38.236Z,19.62
2017-01-06T09:53:46.965Z,19.71
2017-01-06T09:54:55.720Z,19.68
2017-01-06T09:56:04.863Z,19.65
2017-01-06T09:57:13.612Z,19.65
2017-01-06T09:58:22.726Z,19.62
2017-01-06T09:59:32.200Z,19.71
2017-01-06T10:00:41.322Z,19.65
2017-01-06T10:01:50.831Z,19.65
2017-01-06T10:02:59.954Z,19.65
2017-01-06T10:04:09.067Z,19.65
2017-01-06T10:05:18.545Z,19.71
2017-01-06T10:06:27.633Z,19.61
2017-01-06T10:07:36.765Z,19.62
2017-01-06T10:08:45.903Z,19.62
2017-01-06T10:09:55.044Z,19.69
2017-01-06T10:11:03.753Z,19.73
2017-01-06T10:12:12.487Z,19.74
2017-01-06T10:13:21.217Z,19.71
2017-01-06T10:14:30.293Z,19.74
2017-01-06T10:15:39.373Z,19.76
2017-01-06T10:16:48.088Z,19.73
2017-01-06T10:17:56.780Z,19.84
2017-01-06T10:19:06.284Z,19.78
2017-01-06T10:20:15.391Z,19.86
2017-01-06T10:21:25.161Z,19.8
2017-01-06T10:22:34.646Z,19.86
2017-01-06T10:23:44.542Z,19.83
2017-01-06T10:24:53.657Z,19.88
2017-01-06T10:26:03.203Z,19.86
2017-01-06T10:27:12.740Z,19.92
2017-01-06T10:28:21.861Z,19.84
2017-01-06T10:29:30.576Z,19.96
2017-01-06T10:30:39.681Z,19.86
2017-01-06T10:31:48.416Z,19.92
2017-01-06T10:32:57.521Z,19.96
2017-01-06T10:34:07.405Z,19.91
2017-01-06T10:35:16.888Z,20.01
2017-01-06T10:36:26.403Z,19.99
2017-01-06T10:37:35.494Z,19.96
2017-01-06T10:38:44.609Z,19.98
2017-01-06T10:39:53.708Z,20.01
2017-01-06T10:41:02.475Z,20.05
2017-01-06T10:42:12.377Z,19.94
2017-01-06T10:43:21.118Z,20.01
2017-01-06T10:44:30.591Z,19.98
2017-01-06T10:45:40.064Z,19.99
2017-01-06T10:46:49.182Z,19.98
2017-01-06T10:47:58.325Z,20.06
2017-01-06T10:49:07.425Z,20.01
2017-01-06T10:50:16.165Z,20.01
2017-01-06T10:51:25.737Z,19.99
2017-01-06T10:52:35.604Z,19.98
2017-01-06T10:53:45.165Z,20.05
2017-01-06T10:54:53.871Z,20.03
2017-01-06T10:56:03.406Z,20.02
2017-01-06T10:57:12.906Z,20.01
2017-01-06T10:58:22.033Z,20.01
2017-01-06T10:59:31.149Z,20.01
2017-01-06T11:00:39.853Z,19.96
2017-01-06T11:01:49.318Z,19.96
2017-01-06T11:02:58.432Z,20.06
2017-01-06T11:04:07.154Z,19.99
2017-01-06T11:05:15.860Z,19.95
2017-01-06T11:06:25.366Z,19.98
2017-01-06T11:07:34.103Z,19.99
2017-01-06T11:08:43.272Z,19.95
2017-01-06T11:09:51.990Z,19.98
2017-01-06T11:11:00.702Z,19.98
2017-01-06T11:12:09.821Z,20.03
2017-01-06T11:13:18.959Z,19.95
2017-01-06T11:14:28.473Z,20.02
2017-01-06T11:15:37.964Z,20.02
2017-01-06T11:16:47.075Z,19.96
2017-01-06T11:17:57.344Z,19.95
2017-01-06T11:19:06.847Z,19.94
2017-01-06T11:20:15.937Z,19.98
2017-01-06T11:21:25.426Z,20.05
2017-01-06T11:22:34.531Z,19.98
2017-01-06T11:23:43.254Z,20.02
2017-01-06T11:24:52.362Z,19.96
2017-01-06T11:26:01.435Z,19.98
2017-01-06T11:27:10.148Z,19.98
2017-01-06T11:28:19.257Z,20.02
2017-01-06T11:29:27.970Z,19.96
2017-01-06T11:30:37.451Z,19.96
2017-01-06T11:31:46.205Z,19.98
2017-01-06T11:32:55.320Z,19.99
2017-01-06T11:34:04.422Z,19.96
2017-01-06T11:35:13.126Z,19.99
2017-01-06T11:36:22.259Z,19.99
2017-01-06T11:37:31.037Z,19.98
2017-01-06T11:38:40.182Z,19.99
2017-01-06T11:39:48.943Z,19.99
2017-01-06T11:40:58.090Z,20.03
2017-01-06T11:42:07.991Z,19.98
2017-01-06T11:43:16.749Z,20.01
2017-01-06T11:44:25.865Z,19.95
2017-01-06T11:45:35.446Z,19.99
2017-01-06T11:46:45.707Z,20.02
2017-01-06T11:47:54.436Z,19.99
2017-01-06T11:49:04.307Z,19.96
2017-01-06T11:50:13.056Z,19.99
2017-01-06T11:51:22.220Z,20.05
2017-01-06T11:52:30.929Z,19.98
2017-01-06T11:53:39.666Z,20.01
2017-01-06T11:54:48.391Z,19.99
2017-01-06T11:55:57.524Z,19.96
2017-01-06T11:57:06.638Z,19.98
2017-01-06T11:58:15.740Z,19.98
2017-01-06T11:59:25.244Z,19.98
2017-01-06T12:00:33.972Z,19.96
2017-01-06T12:01:42.686Z,19.98
2017-01-06T12:02:51.806Z,19.96
2017-01-06T12:04:00.913Z,19.94
2017-01-06T12:05:11.219Z,19.95
2017-01-06T12:06:20.737Z,19.95
2017-01-06T12:07:30.612Z,19.96
2017-01-06T12:08:39.704Z,19.94
2017-01-06T12:09:49.202Z,19.92
2017-01-06T12:10:58.690Z,19.87
2017-01-06T12:12:07.834Z,19.87
2017-01-06T12:13:16.566Z,19.84
2017-01-06T12:14:25.276Z,19.87
2017-01-06T12:15:33.974Z,19.78
2017-01-06T12:16:43.460Z,19.83
2017-01-06T12:17:52.614Z,19.81
2017-01-06T12:19:01.773Z,19.77
2017-01-06T12:20:10.544Z,19.73
2017-01-06T12:21:20.017Z,19.76
2017-01-06T12:22:29.516Z,19.71
2017-01-06T12:23:39.469Z,19.63
2017-01-06T12:24:48.573Z,19.65
2017-01-06T12:25:57.366Z,19.63
2017-01-06T12:27:06.847Z,19.69
2017-01-06T12:28:16.365Z,19.68
2017-01-06T12:29:25.875Z,19.63
2017-01-06T12:30:34.621Z,19.66
2017-01-06T12:31:43.385Z,19.65
2017-01-06T12:32:52.103Z,19.68
2017-01-06T12:34:00.804Z,19.68
2017-01-06T12:35:09.531Z,19.66
2017-01-06T12:36:19.100Z,19.69
2017-01-06T12:37:28.969Z,19.65
2017-01-06T12:38:37.670Z,19.69
2017-01-06T12:39:46.381Z,19.68
2017-01-06T12:40:55.475Z,19.71
2017-01-06T12:42:04.229Z,19.65
2017-01-06T12:43:13.332Z,19.71
2017-01-06T12:44:22.068Z,19.73
2017-01-06T12:45:30.825Z,19.71
2017-01-06T12:46:39.982Z,19.71
2017-01-06T12:47:49.136Z,19.84
2017-01-06T12:48:58.228Z,19.8
2017-01-06T12:50:07.347Z,19.81
2017-01-06T12:51:16.856Z,19.83
2017-01-06T12:52:25.605Z,19.84
2017-01-06T12:53:34.750Z,19.92
2017-01-06T12:54:43.483Z,19.92
2017-01-06T12:55:52.592Z,19.96
2017-01-06T12:57:01.326Z,20.01
2017-01-06T12:58:10.417Z,19.96
2017-01-06T12:59:19.989Z,20.01
2017-01-06T13:00:28.702Z,20.01
2017-01-06T13:01:38.222Z,20.01
2017-01-06T13:02:46.964Z,20.02
2017-01-06T13:03:55.682Z,20.11
2017-01-06T13:05:05.223Z,20.1
2017-01-06T13:06:14.378Z,20.1
2017-01-06T13:07:23.925Z,20.13
2017-01-06T13:08:33.442Z,20.18
2017-01-06T13:09:42.735Z,20.13
2017-01-06T13:10:52.264Z,20.23
2017-01-06T13:12:01.773Z,20.11
2017-01-06T13:13:10.501Z,20.24
2017-01-06T13:14:19.519Z,20.2
2017-01-06T13:15:28.289Z,20.18
2017-01-06T13:16:37.096Z,20.18
2017-01-06T13:17:45.842Z,20.17
2017-01-06T13:18:54.575Z,20.18
2017-01-06T13:20:04.083Z,20.17
2017-01-06T13:21:12.813Z,20.31
2017-01-06T13:22:22.301Z,20.2
2017-01-06T13:23:31.811Z,20.24
2017-01-06T13:24:40.980Z,20.18
2017-01-06T13:25:49.689Z,20.2
2017-01-06T13:26:58.829Z,20.17
2017-01-06T13:28:07.631Z,20.21
2017-01-06T13:29:17.549Z,20.21
2017-01-06T13:30:27.460Z,20.21
2017-01-06T13:31:36.564Z,20.24
2017-01-06T13:32:45.304Z,20.17
2017-01-06T13:33:54.432Z,20.18
2017-01-06T13:35:03.572Z,20.1
2017-01-06T13:36:13.124Z,20.23
2017-01-06T13:37:21.811Z,20.14
2017-01-06T13:38:30.909Z,20.14
2017-01-06T13:39:40.473Z,20.14
2017-01-06T13:40:49.577Z,20.05
2017-01-06T13:41:58.658Z,20.13
2017-01-06T13:43:07.804Z,20.13
2017-01-06T13:44:16.507Z,20.16
2017-01-06T13:45:25.239Z,20.06
2017-01-06T13:46:34.328Z,20.08
2017-01-06T13:47:43.815Z,20.1
2017-01-06T13:48:52.944Z,20.01
2017-01-06T13:50:01.664Z,20.01
2017-01-06T13:51:10.357Z,19.98
2017-01-06T13:52:19.106Z,19.99
2017-01-06T13:53:28.975Z,19.95
2017-01-06T13:54:38.478Z,19.99
2017-01-06T13:55:47.212Z,20.01
2017-01-06T13:56:56.363Z,19.96
2017-01-06T13:58:05.488Z,19.96
2017-01-06T13:59:14.994Z,20.03
2017-01-06T14:00:24.134Z,20.01
2017-01-06T14:01:33.275Z,20.05
2017-01-06T14:02:43.190Z,19.95
2017-01-06T14:03:52.265Z,20.02
2017-01-06T14:05:01.765Z,19.98
2017-01-06T14:06:11.656Z,19.91
2017-01-06T14:07:21.159Z,19.94
2017-01-06T14:08:30.646Z,19.84
2017-01-06T14:09:39.732Z,19.95
2017-01-06T14:10:48.812Z,19.87
2017-01-06T14:11:58.329Z,19.86
2017-01-06T14:13:07.809Z,19.86
2017-01-06T14:14:17.728Z,19.87
2017-01-06T14:15:26.836Z,19.88
2017-01-06T14:16:36.401Z,19.83
2017-01-06T14:17:45.926Z,19.87
2017-01-06T14:18:54.693Z,19.86
2017-01-06T14:20:03.814Z,19.86
2017-01-06T14:21:12.626Z,19.86
2017-01-06T14:22:22.125Z,19.83
2017-01-06T14:23:31.328Z,19.81
2017-01-06T14:24:40.429Z,19.91
2017-01-06T14:25:49.527Z,19.83
2017-01-06T14:26:58.621Z,19.83
2017-01-06T14:28:07.851Z,19.8
2017-01-06T14:29:16.990Z,19.77
2017-01-06T14:30:26.183Z,19.83
2017-01-06T14:31:35.752Z,19.76
2017-01-06T14:32:44.565Z,19.8
2017-01-06T14:33:53.309Z,19.83
2017-01-06T14:35:02.865Z,19.78
2017-01-06T14:36:12.394Z,19.8
2017-01-06T14:37:21.197Z,19.86
2017-01-06T14:38:31.204Z,19.86
2017-01-06T14:39:39.919Z,19.81
2017-01-06T14:40:48.733Z,19.76
2017-01-06T14:41:57.896Z,19.74
2017-01-06T14:43:07.043Z,19.76
2017-01-06T14:44:16.242Z,19.77
2017-01-06T14:45:24.956Z,19.84
2017-01-06T14:46:34.488Z,19.84
2017-01-06T14:47:43.574Z,19.83
2017-01-06T14:48:52.754Z,19.76
2017-01-06T14:50:01.459Z,19.76
2017-01-06T14:51:10.948Z,19.78
2017-01-06T14:52:20.081Z,19.83
2017-01-06T14:53:28.852Z,19.76